Terminal Aerodrome Forecast
Issued by NWS

Home | Current Version | Previous Version | Graphics & Text | Print | Product List | Glossary On
Versions: 1 2 3 4 5 6 7 8 9 10 11 12 13 14 15 16 17 18 19
000
FTUS43 KICT 190500
TAFSLN
TAF
KSLN 190520Z 1906/2006 15004KT P6SM BKN150
     FM191400 19009KT P6SM OVC130=

USA.gov is the U.S. government's official web portal to all federal, state and local government web resources and services.